sensor_id;sensor_type;location;lat;lon;timestamp;pressure;altitude;pressure_sealevel;temperature;humidity
37206;BME280;23099;42.636;23.198;2023-04-08T00:00:23;92004.06;;;3.85;77.82
37206;BME280;23099;42.636;23.198;2023-04-08T00:02:50;92013.56;;;3.86;77.68
37206;BME280;23099;42.636;23.198;2023-04-08T00:05:18;92010.91;;;3.86;78.53
37206;BME280;23099;42.636;23.198;2023-04-08T00:07:45;92004.22;;;3.80;78.40
37206;BME280;23099;42.636;23.198;2023-04-08T00:10:11;92006.41;;;3.78;78.27
37206;BME280;23099;42.636;23.198;2023-04-08T00:12:38;92007.69;;;3.72;78.70
37206;BME280;23099;42.636;23.198;2023-04-08T00:15:05;92008.50;;;3.64;78.92
37206;BME280;23099;42.636;23.198;2023-04-08T00:17:32;92007.25;;;3.61;78.80
37206;BME280;23099;42.636;23.198;2023-04-08T00:19:59;92002.44;;;3.63;77.70
37206;BME280;23099;42.636;23.198;2023-04-08T00:22:27;92001.84;;;3.58;78.21
37206;BME280;23099;42.636;23.198;2023-04-08T00:24:53;91996.41;;;3.54;78.04
37206;BME280;23099;42.636;23.198;2023-04-08T00:27:20;92001.88;;;3.49;78.30
37206;BME280;23099;42.636;23.198;2023-04-08T00:29:49;92007.97;;;3.41;78.74
37206;BME280;23099;42.636;23.198;2023-04-08T00:32:16;92003.47;;;3.33;76.68
37206;BME280;23099;42.636;23.198;2023-04-08T00:34:42;91999.91;;;3.29;77.33
37206;BME280;23099;42.636;23.198;2023-04-08T00:37:09;92003.34;;;3.29;77.32
37206;BME280;23099;42.636;23.198;2023-04-08T00:39:37;92003.97;;;3.26;77.71
37206;BME280;23099;42.636;23.198;2023-04-08T00:42:04;92000.69;;;3.20;77.31
37206;BME280;23099;42.636;23.198;2023-04-08T00:44:31;92001.47;;;3.21;78.30
37206;BME280;23099;42.636;23.198;2023-04-08T00:46:58;91999.78;;;3.25;77.86
37206;BME280;23099;42.636;23.198;2023-04-08T00:49:25;92002.72;;;3.24;77.82
37206;BME280;23099;42.636;23.198;2023-04-08T00:51:53;92003.66;;;3.28;77.78
37206;BME280;23099;42.636;23.198;2023-04-08T00:54:20;91999.59;;;3.30;78.52
37206;BME280;23099;42.636;23.198;2023-04-08T00:56:48;92000.69;;;3.29;78.16
37206;BME280;23099;42.636;23.198;2023-04-08T00:59:16;91994.63;;;3.29;78.61
37206;BME280;23099;42.636;23.198;2023-04-08T01:01:46;92002.25;;;3.22;78.83
37206;BME280;23099;42.636;23.198;2023-04-08T01:04:21;91998.69;;;3.26;78.76
37206;BME280;23099;42.636;23.198;2023-04-08T01:07:00;92002.09;;;3.27;79.26
37206;BME280;23099;42.636;23.198;2023-04-08T01:09:31;92003.50;;;3.24;79.07
37206;BME280;23099;42.636;23.198;2023-04-08T01:12:03;92003.19;;;3.26;79.65
37206;BME280;23099;42.636;23.198;2023-04-08T01:14:33;92003.94;;;3.35;79.55
37206;BME280;23099;42.636;23.198;2023-04-08T01:17:01;92007.53;;;3.30;79.30
37206;BME280;23099;42.636;23.198;2023-04-08T01:19:30;92006.88;;;3.33;79.57
37206;BME280;23099;42.636;23.198;2023-04-08T01:22:02;91999.91;;;3.29;80.55
37206;BME280;23099;42.636;23.198;2023-04-08T01:24:33;91998.84;;;3.30;80.57
37206;BME280;23099;42.636;23.198;2023-04-08T01:27:04;91997.41;;;3.32;80.47
37206;BME280;23099;42.636;23.198;2023-04-08T01:29:32;91998.53;;;3.31;80.37
37206;BME280;23099;42.636;23.198;2023-04-08T01:32:01;92002.56;;;3.29;81.14
37206;BME280;23099;42.636;23.198;2023-04-08T01:34:29;92003.81;;;3.31;80.82
37206;BME280;23099;42.636;23.198;2023-04-08T01:36:57;92002.88;;;3.18;81.31
37206;BME280;23099;42.636;23.198;2023-04-08T01:39:24;92007.84;;;3.20;81.42
37206;BME280;23099;42.636;23.198;2023-04-08T01:41:53;92012.03;;;3.21;81.48
37206;BME280;23099;42.636;23.198;2023-04-08T01:44:21;92013.91;;;3.20;81.34
37206;BME280;23099;42.636;23.198;2023-04-08T01:46:50;92008.63;;;3.29;80.59
37206;BME280;23099;42.636;23.198;2023-04-08T01:49:18;92011.06;;;3.34;80.89
37206;BME280;23099;42.636;23.198;2023-04-08T01:51:48;92023.03;;;3.40;80.16
37206;BME280;23099;42.636;23.198;2023-04-08T01:54:14;92015.56;;;3.42;80.30
37206;BME280;23099;42.636;23.198;2023-04-08T01:56:43;92018.81;;;3.48;80.50
37206;BME280;23099;42.636;23.198;2023-04-08T01:59:13;92024.56;;;3.50;80.04
37206;BME280;23099;42.636;23.198;2023-04-08T02:01:43;92034.03;;;3.51;80.40
37206;BME280;23099;42.636;23.198;2023-04-08T02:04:11;92031.25;;;3.47;80.04
37206;BME280;23099;42.636;23.198;2023-04-08T02:06:38;92026.47;;;3.41;80.33
37206;BME280;23099;42.636;23.198;2023-04-08T02:09:04;92034.66;;;3.48;79.82
37206;BME280;23099;42.636;23.198;2023-04-08T02:11:32;92039.00;;;3.52;80.74
37206;BME280;23099;42.636;23.198;2023-04-08T02:13:58;92031.69;;;3.58;80.33
37206;BME280;23099;42.636;23.198;2023-04-08T02:16:30;92036.47;;;3.65;79.60
37206;BME280;23099;42.636;23.198;2023-04-08T02:19:06;92036.47;;;3.65;79.70
37206;BME280;23099;42.636;23.198;2023-04-08T02:21:39;92038.19;;;3.69;79.77
37206;BME280;23099;42.636;23.198;2023-04-08T02:24:09;92033.34;;;3.71;79.64
37206;BME280;23099;42.636;23.198;2023-04-08T02:26:39;92035.69;;;3.73;79.97
37206;BME280;23099;42.636;23.198;2023-04-08T02:29:11;92025.91;;;3.65;79.93
37206;BME280;23099;42.636;23.198;2023-04-08T02:31:40;92031.59;;;3.75;79.81
37206;BME280;23099;42.636;23.198;2023-04-08T02:34:09;92031.28;;;3.77;79.70
37206;BME280;23099;42.636;23.198;2023-04-08T02:36:36;92036.59;;;3.77;79.84
37206;BME280;23099;42.636;23.198;2023-04-08T02:39:05;92037.81;;;3.79;79.99
37206;BME280;23099;42.636;23.198;2023-04-08T02:41:32;92039.38;;;3.80;79.69
37206;BME280;23099;42.636;23.198;2023-04-08T02:43:59;92038.91;;;3.78;80.44
37206;BME280;23099;42.636;23.198;2023-04-08T02:46:25;92031.59;;;3.75;80.62
37206;BME280;23099;42.636;23.198;2023-04-08T02:48:52;92039.88;;;3.74;80.39
37206;BME280;23099;42.636;23.198;2023-04-08T02:51:20;92030.88;;;3.75;81.08
37206;BME280;23099;42.636;23.198;2023-04-08T02:53:47;92039.41;;;3.72;80.78
37206;BME280;23099;42.636;23.198;2023-04-08T02:56:14;92036.78;;;3.63;80.97
37206;BME280;23099;42.636;23.198;2023-04-08T02:58:40;92042.06;;;3.63;80.00
37206;BME280;23099;42.636;23.198;2023-04-08T03:01:07;92031.81;;;3.62;80.49
37206;BME280;23099;42.636;23.198;2023-04-08T03:03:34;92030.91;;;3.58;80.96
37206;BME280;23099;42.636;23.198;2023-04-08T03:06:00;92032.63;;;3.53;81.24
37206;BME280;23099;42.636;23.198;2023-04-08T03:08:28;92038.69;;;3.54;81.11
37206;BME280;23099;42.636;23.198;2023-04-08T03:10:55;92022.53;;;3.55;81.18
37206;BME280;23099;42.636;23.198;2023-04-08T03:13:22;92030.28;;;3.61;81.78
37206;BME280;23099;42.636;23.198;2023-04-08T03:15:48;92025.44;;;3.63;81.55
37206;BME280;23099;42.636;23.198;2023-04-08T03:18:15;92028.22;;;3.66;81.00
37206;BME280;23099;42.636;23.198;2023-04-08T03:20:42;92026.38;;;3.67;80.88
37206;BME280;23099;42.636;23.198;2023-04-08T03:23:08;92022.81;;;3.63;80.45
37206;BME280;23099;42.636;23.198;2023-04-08T03:25:36;92029.47;;;3.69;80.10
37206;BME280;23099;42.636;23.198;2023-04-08T03:28:03;92029.63;;;3.64;80.14
37206;BME280;23099;42.636;23.198;2023-04-08T03:30:30;92034.03;;;3.60;80.79
37206;BME280;23099;42.636;23.198;2023-04-08T03:32:57;92035.75;;;3.55;80.67
37206;BME280;23099;42.636;23.198;2023-04-08T03:35:24;92028.28;;;3.58;80.61
37206;BME280;23099;42.636;23.198;2023-04-08T03:37:50;92030.59;;;3.59;80.45
37206;BME280;23099;42.636;23.198;2023-04-08T03:40:17;92031.38;;;3.60;80.31
37206;BME280;23099;42.636;23.198;2023-04-08T03:42:45;92032.47;;;3.59;81.00
37206;BME280;23099;42.636;23.198;2023-04-08T03:45:12;92030.13;;;3.57;80.95
37206;BME280;23099;42.636;23.198;2023-04-08T03:47:40;92020.50;;;3.52;80.70
37206;BME280;23099;42.636;23.198;2023-04-08T03:50:07;92024.72;;;3.53;80.91
37206;BME280;23099;42.636;23.198;2023-04-08T03:52:34;92027.03;;;3.46;81.37
37206;BME280;23099;42.636;23.198;2023-04-08T03:55:00;92025.94;;;3.47;81.94
37206;BME280;23099;42.636;23.198;2023-04-08T03:57:27;92029.06;;;3.49;82.18
37206;BME280;23099;42.636;23.198;2023-04-08T03:59:55;92021.63;;;3.34;82.25
37206;BME280;23099;42.636;23.198;2023-04-08T04:02:22;92027.84;;;3.38;82.08
37206;BME280;23099;42.636;23.198;2023-04-08T04:04:49;92036.75;;;3.25;82.14
37206;BME280;23099;42.636;23.198;2023-04-08T04:07:15;92036.28;;;3.32;81.64
37206;BME280;23099;42.636;23.198;2023-04-08T04:09:42;92036.59;;;3.30;81.17
37206;BME280;23099;42.636;23.198;2023-04-08T04:12:08;92033.16;;;3.30;81.29
37206;BME280;23099;42.636;23.198;2023-04-08T04:14:35;92025.72;;;3.32;82.09
37206;BME280;23099;42.636;23.198;2023-04-08T04:17:03;92038.25;;;3.35;82.02
37206;BME280;23099;42.636;23.198;2023-04-08T04:19:30;92043.69;;;3.38;81.65
37206;BME280;23099;42.636;23.198;2023-04-08T04:21:57;92040.31;;;3.29;81.76
37206;BME280;23099;42.636;23.198;2023-04-08T04:24:23;92042.47;;;3.36;81.71
37206;BME280;23099;42.636;23.198;2023-04-08T04:26:50;92044.63;;;3.34;81.53
37206;BME280;23099;42.636;23.198;2023-04-08T04:29:17;92042.97;;;3.29;81.93
37206;BME280;23099;42.636;23.198;2023-04-08T04:31:43;92038.25;;;3.35;81.89
37206;BME280;23099;42.636;23.198;2023-04-08T04:34:11;92045.72;;;3.41;81.36
37206;BME280;23099;42.636;23.198;2023-04-08T04:36:38;92041.38;;;3.45;81.03
37206;BME280;23099;42.636;23.198;2023-04-08T04:39:05;92040.41;;;3.50;80.90
37206;BME280;23099;42.636;23.198;2023-04-08T04:41:32;92040.72;;;3.57;81.00
37206;BME280;23099;42.636;23.198;2023-04-08T04:44:03;92039.94;;;3.57;80.90
37206;BME280;23099;42.636;23.198;2023-04-08T04:46:29;92041.28;;;3.63;81.03
37206;BME280;23099;42.636;23.198;2023-04-08T04:48:56;92038.50;;;3.68;81.28
37206;BME280;23099;42.636;23.198;2023-04-08T04:51:24;92039.09;;;3.73;81.85
37206;BME280;23099;42.636;23.198;2023-04-08T04:53:51;92044.25;;;3.70;82.38
37206;BME280;23099;42.636;23.198;2023-04-08T04:56:18;92044.72;;;3.63;80.84
37206;BME280;23099;42.636;23.198;2023-04-08T04:58:45;92041.13;;;3.68;80.63
37206;BME280;23099;42.636;23.198;2023-04-08T05:01:12;92047.50;;;3.67;80.82
37206;BME280;23099;42.636;23.198;2023-04-08T05:03:38;92050.31;;;3.70;81.40
37206;BME280;23099;42.636;23.198;2023-04-08T05:06:05;92046.41;;;3.68;80.78
37206;BME280;23099;42.636;23.198;2023-04-08T05:08:33;92052.16;;;3.70;80.92
37206;BME280;23099;42.636;23.198;2023-04-08T05:11:00;92049.38;;;3.75;80.79
37206;BME280;23099;42.636;23.198;2023-04-08T05:13:27;92055.41;;;3.75;80.19
37206;BME280;23099;42.636;23.198;2023-04-08T05:15:54;92058.03;;;3.84;79.78
37206;BME280;23099;42.636;23.198;2023-04-08T05:18:20;92055.53;;;3.87;79.49
37206;BME280;23099;42.636;23.198;2023-04-08T05:20:47;92058.13;;;3.96;79.20
37206;BME280;23099;42.636;23.198;2023-04-08T05:23:14;92057.66;;;3.94;78.83
37206;BME280;23099;42.636;23.198;2023-04-08T05:25:42;92051.75;;;3.97;79.03
37206;BME280;23099;42.636;23.198;2023-04-08T05:28:08;92053.56;;;4.05;79.16
37206;BME280;23099;42.636;23.198;2023-04-08T05:30:35;92051.91;;;4.01;80.08
37206;BME280;23099;42.636;23.198;2023-04-08T05:33:02;92054.03;;;4.07;79.75
37206;BME280;23099;42.636;23.198;2023-04-08T05:35:29;92057.75;;;4.06;79.13
37206;BME280;23099;42.636;23.198;2023-04-08T05:37:55;92053.56;;;4.05;80.02
37206;BME280;23099;42.636;23.198;2023-04-08T05:40:22;92062.72;;;4.16;78.79
37206;BME280;23099;42.636;23.198;2023-04-08T05:42:50;92054.28;;;4.23;78.47
37206;BME280;23099;42.636;23.198;2023-04-08T05:45:17;92049.56;;;4.29;78.37
37206;BME280;23099;42.636;23.198;2023-04-08T05:47:44;92055.13;;;4.36;77.39
37206;BME280;23099;42.636;23.198;2023-04-08T05:50:10;92055.66;;;4.50;76.82
37206;BME280;23099;42.636;23.198;2023-04-08T05:52:41;92054.22;;;4.61;75.53
37206;BME280;23099;42.636;23.198;2023-04-08T05:55:08;92054.31;;;4.65;74.65
37206;BME280;23099;42.636;23.198;2023-04-08T05:57:35;92048.41;;;4.68;75.26
37206;BME280;23099;42.636;23.198;2023-04-08T06:00:04;92043.69;;;4.73;74.78
37206;BME280;23099;42.636;23.198;2023-04-08T06:02:32;92038.13;;;4.87;74.76
37206;BME280;23099;42.636;23.198;2023-04-08T06:04:59;92036.72;;;4.89;74.42
37206;BME280;23099;42.636;23.198;2023-04-08T06:07:25;92039.94;;;4.95;74.24
37206;BME280;23099;42.636;23.198;2023-04-08T06:09:52;92039.38;;;4.89;74.19
37206;BME280;23099;42.636;23.198;2023-04-08T06:12:19;92037.28;;;4.95;74.55
37206;BME280;23099;42.636;23.198;2023-04-08T06:14:46;92038.06;;;4.95;75.08
37206;BME280;23099;42.636;23.198;2023-04-08T06:17:14;92035.09;;;4.97;74.82
37206;BME280;23099;42.636;23.198;2023-04-08T06:19:41;92036.19;;;4.96;75.74
37206;BME280;23099;42.636;23.198;2023-04-08T06:22:07;92044.31;;;4.91;75.96
37206;BME280;23099;42.636;23.198;2023-04-08T06:24:34;92042.13;;;4.93;75.49
37206;BME280;23099;42.636;23.198;2023-04-08T06:27:00;92043.81;;;4.97;75.09
37206;BME280;23099;42.636;23.198;2023-04-08T06:29:27;92044.94;;;5.09;75.43
37206;BME280;23099;42.636;23.198;2023-04-08T06:31:55;92047.72;;;5.12;75.40
37206;BME280;23099;42.636;23.198;2023-04-08T06:34:23;92045.00;;;5.21;76.25
37206;BME280;23099;42.636;23.198;2023-04-08T06:36:50;92047.31;;;5.22;75.11
37206;BME280;23099;42.636;23.198;2023-04-08T06:39:16;92053.66;;;5.30;75.36
37206;BME280;23099;42.636;23.198;2023-04-08T06:41:43;92049.69;;;5.36;74.75
37206;BME280;23099;42.636;23.198;2023-04-08T06:44:10;92053.69;;;5.42;74.98
37206;BME280;23099;42.636;23.198;2023-04-08T06:46:37;92059.84;;;5.34;74.95
37206;BME280;23099;42.636;23.198;2023-04-08T06:49:03;92055.31;;;5.34;76.06
37206;BME280;23099;42.636;23.198;2023-04-08T06:51:34;92050.41;;;5.45;75.88
37206;BME280;23099;42.636;23.198;2023-04-08T06:54:01;92060.56;;;5.43;75.34
37206;BME280;23099;42.636;23.198;2023-04-08T06:56:30;92059.59;;;5.48;76.09
37206;BME280;23099;42.636;23.198;2023-04-08T06:58:58;92066.84;;;5.51;75.60
37206;BME280;23099;42.636;23.198;2023-04-08T07:01:25;92058.50;;;5.61;75.48
37206;BME280;23099;42.636;23.198;2023-04-08T07:03:52;92065.78;;;5.64;75.67
37206;BME280;23099;42.636;23.198;2023-04-08T07:06:18;92052.97;;;5.66;75.78
37206;BME280;23099;42.636;23.198;2023-04-08T07:08:46;92054.97;;;5.69;75.29
37206;BME280;23099;42.636;23.198;2023-04-08T07:11:13;92065.59;;;5.69;74.62
37206;BME280;23099;42.636;23.198;2023-04-08T07:13:40;92068.69;;;5.71;74.21
37206;BME280;23099;42.636;23.198;2023-04-08T07:16:07;92062.28;;;5.72;74.93
37206;BME280;23099;42.636;23.198;2023-04-08T07:18:33;92067.72;;;5.76;74.74
37206;BME280;23099;42.636;23.198;2023-04-08T07:21:00;92074.03;;;5.83;74.56
37206;BME280;23099;42.636;23.198;2023-04-08T07:23:27;92073.38;;;5.86;74.83
37206;BME280;23099;42.636;23.198;2023-04-08T07:26:01;92077.81;;;5.94;74.11
37206;BME280;23099;42.636;23.198;2023-04-08T07:28:27;92079.38;;;5.95;74.32
37206;BME280;23099;42.636;23.198;2023-04-08T07:30:54;92070.31;;;6.09;73.56
37206;BME280;23099;42.636;23.198;2023-04-08T07:33:21;92082.72;;;6.05;72.96
37206;BME280;23099;42.636;23.198;2023-04-08T07:35:48;92085.44;;;5.96;74.03
37206;BME280;23099;42.636;23.198;2023-04-08T07:38:14;92086.38;;;6.12;73.22
37206;BME280;23099;42.636;23.198;2023-04-08T07:40:41;92091.34;;;6.14;72.40
37206;BME280;23099;42.636;23.198;2023-04-08T07:43:09;92089.34;;;6.23;72.68
37206;BME280;23099;42.636;23.198;2023-04-08T07:45:36;92082.63;;;6.25;72.55
37206;BME280;23099;42.636;23.198;2023-04-08T07:48:03;92087.38;;;6.32;72.04
37206;BME280;23099;42.636;23.198;2023-04-08T07:50:30;92098.09;;;6.35;71.98
37206;BME280;23099;42.636;23.198;2023-04-08T07:52:56;92091.91;;;6.44;72.84
37206;BME280;23099;42.636;23.198;2023-04-08T07:55:23;92102.28;;;6.36;72.48
37206;BME280;23099;42.636;23.198;2023-04-08T07:57:50;92107.53;;;6.45;72.87
37206;BME280;23099;42.636;23.198;2023-04-08T08:00:19;92101.22;;;6.62;73.23
37206;BME280;23099;42.636;23.198;2023-04-08T08:02:46;92103.63;;;6.79;71.85
37206;BME280;23099;42.636;23.198;2023-04-08T08:05:13;92104.25;;;7.00;70.84
37206;BME280;23099;42.636;23.198;2023-04-08T08:07:39;92107.44;;;7.18;70.57
37206;BME280;23099;42.636;23.198;2023-04-08T08:10:07;92101.09;;;7.35;70.46
37206;BME280;23099;42.636;23.198;2023-04-08T08:12:34;92106.25;;;7.43;69.73
37206;BME280;23099;42.636;23.198;2023-04-08T08:15:01;92105.81;;;7.41;68.69
37206;BME280;23099;42.636;23.198;2023-04-08T08:17:29;92106.69;;;7.45;68.85
37206;BME280;23099;42.636;23.198;2023-04-08T08:19:58;92110.34;;;7.41;68.41
37206;BME280;23099;42.636;23.198;2023-04-08T08:22:24;92104.03;;;7.45;68.72
37206;BME280;23099;42.636;23.198;2023-04-08T08:24:54;92099.09;;;7.32;69.63
37206;BME280;23099;42.636;23.198;2023-04-08T08:27:21;92104.25;;;7.40;68.12
37206;BME280;23099;42.636;23.198;2023-04-08T08:29:48;92101.88;;;7.35;68.89
37206;BME280;23099;42.636;23.198;2023-04-08T08:32:15;92106.25;;;7.43;67.99
37206;BME280;23099;42.636;23.198;2023-04-08T08:34:43;92112.31;;;7.56;69.42
37206;BME280;23099;42.636;23.198;2023-04-08T08:37:10;92101.16;;;7.66;68.49
37206;BME280;23099;42.636;23.198;2023-04-08T08:39:37;92103.16;;;7.69;68.81
37206;BME280;23099;42.636;23.198;2023-04-08T08:42:03;92103.88;;;7.82;68.50
37206;BME280;23099;42.636;23.198;2023-04-08T08:44:30;92104.84;;;7.90;68.65
37206;BME280;23099;42.636;23.198;2023-04-08T08:46:57;92101.22;;;7.82;67.15
37206;BME280;23099;42.636;23.198;2023-04-08T08:49:23;92108.81;;;7.68;68.15
37206;BME280;23099;42.636;23.198;2023-04-08T08:51:53;92112.19;;;7.80;68.61
37206;BME280;23099;42.636;23.198;2023-04-08T08:54:20;92110.00;;;7.98;68.90
37206;BME280;23099;42.636;23.198;2023-04-08T08:56:47;92114.75;;;8.05;67.70
37206;BME280;23099;42.636;23.198;2023-04-08T08:59:14;92118.97;;;8.06;67.64
37206;BME280;23099;42.636;23.198;2023-04-08T09:01:40;92114.69;;;8.17;66.40
37206;BME280;23099;42.636;23.198;2023-04-08T09:04:12;92114.44;;;8.38;66.76
37206;BME280;23099;42.636;23.198;2023-04-08T09:06:41;92119.72;;;8.50;66.03
37206;BME280;23099;42.636;23.198;2023-04-08T09:09:09;92113.66;;;8.69;66.13
37206;BME280;23099;42.636;23.198;2023-04-08T09:11:37;92119.88;;;8.73;65.98
37206;BME280;23099;42.636;23.198;2023-04-08T09:14:04;92114.44;;;8.85;64.27
37206;BME280;23099;42.636;23.198;2023-04-08T09:16:31;92111.06;;;9.04;64.26
37206;BME280;23099;42.636;23.198;2023-04-08T09:19:07;92109.91;;;9.20;63.41
37206;BME280;23099;42.636;23.198;2023-04-08T09:21:35;92103.25;;;9.49;62.79
37206;BME280;23099;42.636;23.198;2023-04-08T09:24:02;92097.00;;;9.61;62.20
37206;BME280;23099;42.636;23.198;2023-04-08T09:26:30;92107.97;;;9.75;62.31
37206;BME280;23099;42.636;23.198;2023-04-08T09:28:59;92101.97;;;9.82;62.27
37206;BME280;23099;42.636;23.198;2023-04-08T09:31:26;92101.19;;;9.81;61.02
37206;BME280;23099;42.636;23.198;2023-04-08T09:33:55;92086.88;;;9.70;60.27
37206;BME280;23099;42.636;23.198;2023-04-08T09:36:22;92090.59;;;9.85;60.15
37206;BME280;23099;42.636;23.198;2023-04-08T09:38:51;92097.88;;;10.07;59.54
37206;BME280;23099;42.636;23.198;2023-04-08T09:41:19;92099.31;;;10.20;58.32
37206;BME280;23099;42.636;23.198;2023-04-08T09:43:50;92089.88;;;10.49;59.18
37206;BME280;23099;42.636;23.198;2023-04-08T09:46:18;92092.19;;;10.51;55.93
37206;BME280;23099;42.636;23.198;2023-04-08T09:48:49;92096.03;;;10.53;54.81
37206;BME280;23099;42.636;23.198;2023-04-08T09:51:22;92085.97;;;10.70;55.11
37206;BME280;23099;42.636;23.198;2023-04-08T09:53:55;92084.19;;;10.77;54.75
37206;BME280;23099;42.636;23.198;2023-04-08T09:56:26;92074.69;;;11.06;57.04
37206;BME280;23099;42.636;23.198;2023-04-08T09:58:58;92081.97;;;11.36;54.65
37206;BME280;23099;42.636;23.198;2023-04-08T10:01:36;92074.94;;;11.24;54.19
37206;BME280;23099;42.636;23.198;2023-04-08T10:04:04;92075.72;;;10.98;55.20
37206;BME280;23099;42.636;23.198;2023-04-08T10:06:34;92068.44;;;10.46;56.15
37206;BME280;23099;42.636;23.198;2023-04-08T10:09:02;92071.59;;;10.51;57.35
37206;BME280;23099;42.636;23.198;2023-04-08T10:11:29;92073.13;;;10.30;57.00
37206;BME280;23099;42.636;23.198;2023-04-08T10:13:57;92073.03;;;10.26;57.08
37206;BME280;23099;42.636;23.198;2023-04-08T10:16:25;92069.22;;;10.23;58.30
37206;BME280;23099;42.636;23.198;2023-04-08T10:18:52;92073.53;;;10.32;58.23
37206;BME280;23099;42.636;23.198;2023-04-08T10:21:38;92055.66;;;10.85;57.55
37206;BME280;23099;42.636;23.198;2023-04-08T10:24:08;92057.06;;;11.31;56.41
37206;BME280;23099;42.636;23.198;2023-04-08T10:26:37;92053.97;;;11.59;55.37
37206;BME280;23099;42.636;23.198;2023-04-08T10:32:27;92052.59;;;11.39;53.02
37206;BME280;23099;42.636;23.198;2023-04-08T10:34:54;92049.91;;;11.09;53.32
37206;BME280;23099;42.636;23.198;2023-04-08T10:37:21;92042.53;;;11.62;55.12
37206;BME280;23099;42.636;23.198;2023-04-08T10:39:48;92032.28;;;12.01;54.20
37206;BME280;23099;42.636;23.198;2023-04-08T10:42:16;92032.47;;;12.23;51.54
37206;BME280;23099;42.636;23.198;2023-04-08T10:44:43;92031.47;;;12.38;51.95
37206;BME280;23099;42.636;23.198;2023-04-08T10:47:12;92031.41;;;12.31;52.78
37206;BME280;23099;42.636;23.198;2023-04-08T10:49:39;92023.31;;;12.27;51.21
37206;BME280;23099;42.636;23.198;2023-04-08T10:52:07;92020.16;;;12.15;51.62
37206;BME280;23099;42.636;23.198;2023-04-08T10:54:35;92026.47;;;12.36;52.70
37206;BME280;23099;42.636;23.198;2023-04-08T10:57:03;92013.47;;;12.90;52.83
37206;BME280;23099;42.636;23.198;2023-04-08T10:59:31;92014.28;;;12.97;50.09
37206;BME280;23099;42.636;23.198;2023-04-08T11:01:58;92022.03;;;12.58;50.33
37206;BME280;23099;42.636;23.198;2023-04-08T11:04:26;92016.28;;;12.12;51.60
37206;BME280;23099;42.636;23.198;2023-04-08T11:06:53;92006.66;;;12.04;52.96
37206;BME280;23099;42.636;23.198;2023-04-08T11:09:20;92002.88;;;12.56;53.35
37206;BME280;23099;42.636;23.198;2023-04-08T11:11:47;92004.28;;;12.91;51.54
37206;BME280;23099;42.636;23.198;2023-04-08T11:14:13;91984.69;;;12.83;51.66
37206;BME280;23099;42.636;23.198;2023-04-08T11:16:44;91989.19;;;12.72;51.69
37206;BME280;23099;42.636;23.198;2023-04-08T11:19:12;91995.31;;;12.65;52.34
37206;BME280;23099;42.636;23.198;2023-04-08T11:21:40;91984.50;;;12.58;50.70
37206;BME280;23099;42.636;23.198;2023-04-08T11:24:09;91993.19;;;12.37;50.82
37206;BME280;23099;42.636;23.198;2023-04-08T11:26:38;91992.25;;;12.19;50.12
37206;BME280;23099;42.636;23.198;2023-04-08T11:29:05;91985.72;;;12.17;51.39
37206;BME280;23099;42.636;23.198;2023-04-08T11:31:33;91985.31;;;12.62;51.15
37206;BME280;23099;42.636;23.198;2023-04-08T11:34:00;91976.50;;;12.62;50.05
37206;BME280;23099;42.636;23.198;2023-04-08T11:36:27;91968.00;;;12.49;50.38
37206;BME280;23099;42.636;23.198;2023-04-08T11:38:56;91979.25;;;12.72;51.57
37206;BME280;23099;42.636;23.198;2023-04-08T11:41:22;91967.16;;;13.03;49.57
37206;BME280;23099;42.636;23.198;2023-04-08T11:43:55;91960.03;;;13.32;49.28
37206;BME280;23099;42.636;23.198;2023-04-08T11:46:22;91952.25;;;13.09;47.83
37206;BME280;23099;42.636;23.198;2023-04-08T11:49:03;91934.19;;;12.99;49.82
37206;BME280;23099;42.636;23.198;2023-04-08T11:51:31;91959.09;;;13.00;49.13
37206;BME280;23099;42.636;23.198;2023-04-08T11:54:00;91955.72;;;13.14;48.58
37206;BME280;23099;42.636;23.198;2023-04-08T11:56:29;91964.41;;;12.89;45.08
37206;BME280;23099;42.636;23.198;2023-04-08T11:58:57;91961.94;;;13.28;49.36
37206;BME280;23099;42.636;23.198;2023-04-08T12:01:25;91966.50;;;13.17;46.84
37206;BME280;23099;42.636;23.198;2023-04-08T12:03:53;91962.84;;;12.81;47.19
37206;BME280;23099;42.636;23.198;2023-04-08T12:06:20;91955.81;;;12.62;48.30
37206;BME280;23099;42.636;23.198;2023-04-08T12:08:47;91960.94;;;12.30;46.71
37206;BME280;23099;42.636;23.198;2023-04-08T12:11:15;91964.22;;;12.06;48.31
37206;BME280;23099;42.636;23.198;2023-04-08T12:13:42;91960.06;;;11.75;49.83
37206;BME280;23099;42.636;23.198;2023-04-08T12:16:09;91963.06;;;11.70;48.83
37206;BME280;23099;42.636;23.198;2023-04-08T12:18:36;91956.50;;;11.64;48.04
37206;BME280;23099;42.636;23.198;2023-04-08T12:21:03;91965.22;;;11.54;49.00
37206;BME280;23099;42.636;23.198;2023-04-08T12:23:29;91969.53;;;11.69;50.15
37206;BME280;23099;42.636;23.198;2023-04-08T12:25:56;91966.50;;;11.70;49.06
37206;BME280;23099;42.636;23.198;2023-04-08T12:28:25;91965.00;;;11.73;49.44
37206;BME280;23099;42.636;23.198;2023-04-08T12:30:51;91964.28;;;11.39;50.28
37206;BME280;23099;42.636;23.198;2023-04-08T12:33:18;91965.25;;;11.24;50.97
37206;BME280;23099;42.636;23.198;2023-04-08T12:35:45;91966.28;;;11.16;51.26
37206;BME280;23099;42.636;23.198;2023-04-08T12:38:11;91974.06;;;10.94;51.94
37206;BME280;23099;42.636;23.198;2023-04-08T12:40:38;91971.41;;;10.98;53.50
37206;BME280;23099;42.636;23.198;2023-04-08T12:43:05;91962.72;;;11.05;53.24
37206;BME280;23099;42.636;23.198;2023-04-08T12:45:33;91963.97;;;11.11;53.70
37206;BME280;23099;42.636;23.198;2023-04-08T12:47:59;91965.06;;;11.40;54.76
37206;BME280;23099;42.636;23.198;2023-04-08T12:50:26;91969.13;;;11.63;52.43
37206;BME280;23099;42.636;23.198;2023-04-08T12:52:53;91974.53;;;11.67;51.26
37206;BME280;23099;42.636;23.198;2023-04-08T12:55:19;91969.78;;;11.53;51.09
37206;BME280;23099;42.636;23.198;2023-04-08T12:57:49;91975.72;;;11.73;50.63
37206;BME280;23099;42.636;23.198;2023-04-08T13:00:16;91965.56;;;11.89;49.72
37206;BME280;23099;42.636;23.198;2023-04-08T13:02:45;91960.94;;;11.83;50.76